Terminal Aerodrome Forecast
Issued by NWS

Home | Current Version | Previous Version | Graphics & Text | Print | Product List | Glossary On
Versions: 1 2 3 4 5 6 7 8 9 10 11 12 13 14 15 16 17 18 19 20 21
000
FTUS43 KBIS 291610 AAA
TAFJMS
TAF AMD
KJMS 291610Z 2916/3012 36020G28KT P6SM BKN035
      TEMPO 2916/2918 BKN025
     FM292100 36017G25KT P6SM SCT045
     FM292200 36015G22KT P6SM SKC
     FM300100 02007KT P6SM SKC=

USA.gov is the U.S. government's official web portal to all federal, state and local government web resources and services.